createdAt,value
2018-06-08T00:01:40.948Z,6.77
2018-06-08T00:04:10.112Z,7.87
2018-06-08T00:06:39.233Z,6.97
2018-06-08T00:09:09.061Z,5.93
2018-06-08T00:11:38.227Z,5.03
2018-06-08T00:14:07.068Z,4.70
2018-06-08T00:16:36.095Z,5.70
2018-06-08T00:19:05.245Z,5.17
2018-06-08T00:21:34.357Z,5.73
2018-06-08T00:24:03.533Z,5.43
2018-06-08T00:26:32.742Z,5.30
2018-06-08T00:29:01.924Z,5.97
2018-06-08T00:31:31.120Z,5.00
2018-06-08T00:34:00.258Z,6.97
2018-06-08T00:36:29.416Z,6.27
2018-06-08T00:38:58.545Z,7.33
2018-06-08T00:41:27.777Z,5.80
2018-06-08T00:43:56.913Z,6.33
2018-06-08T00:46:26.047Z,4.93
2018-06-08T00:48:55.206Z,5.47
2018-06-08T00:51:25.390Z,5.40
2018-06-08T00:53:54.517Z,6.93
2018-06-08T00:56:34.910Z,6.53
2018-06-08T00:59:04.075Z,5.37
2018-06-08T01:01:34.447Z,4.97
2018-06-08T01:04:04.615Z,4.77
2018-06-08T01:06:33.749Z,4.20
2018-06-08T01:09:03.120Z,5.03
2018-06-08T01:11:32.246Z,9.30
2018-06-08T01:14:01.388Z,5.33
2018-06-08T01:16:30.538Z,10.37
2018-06-08T01:19:02.837Z,4.50
2018-06-08T01:21:32.290Z,6.17
2018-06-08T01:24:01.419Z,6.47
2018-06-08T01:26:30.822Z,5.37
2018-06-08T01:29:00.030Z,6.20
2018-06-08T01:31:29.136Z,6.87
2018-06-08T01:33:58.233Z,5.17
2018-06-08T01:36:27.451Z,5.87
2018-06-08T01:38:56.599Z,5.10
2018-06-08T01:41:25.744Z,6.17
2018-06-08T01:43:54.922Z,6.50
2018-06-08T01:46:24.024Z,5.20
2018-06-08T01:48:53.159Z,3.83
2018-06-08T01:51:22.307Z,4.77
2018-06-08T01:53:51.427Z,4.33
2018-06-08T01:56:20.666Z,6.00
2018-06-08T01:58:49.923Z,4.83
2018-06-08T02:01:19.070Z,4.97
2018-06-08T02:03:48.216Z,4.07
2018-06-08T02:06:18.375Z,5.83
2018-06-08T02:08:47.775Z,5.37
2018-06-08T02:11:17.043Z,3.77
2018-06-08T02:13:46.134Z,5.17
2018-06-08T02:16:15.279Z,4.47
2018-06-08T02:18:44.629Z,5.77
2018-06-08T02:21:13.757Z,5.80
2018-06-08T02:23:42.924Z,5.20
2018-06-08T02:26:12.076Z,6.13
2018-06-08T02:28:41.262Z,7.43
2018-06-08T02:31:10.453Z,8.17
2018-06-08T02:33:39.577Z,9.03
2018-06-08T02:36:08.751Z,6.07
2018-06-08T02:38:37.914Z,6.83
2018-06-08T02:41:07.067Z,6.93
2018-06-08T02:43:36.255Z,7.30
2018-06-08T02:46:05.454Z,6.97
2018-06-08T02:48:34.632Z,6.53
2018-06-08T02:51:03.797Z,5.50
2018-06-08T02:53:32.993Z,6.67
2018-06-08T02:56:02.125Z,7.87
2018-06-08T02:58:31.300Z,9.00
2018-06-08T03:01:00.483Z,5.10
2018-06-08T03:03:29.630Z,4.87
2018-06-08T03:05:58.813Z,5.80
2018-06-08T03:08:28.006Z,7.13
2018-06-08T03:10:57.208Z,6.73
2018-06-08T03:13:26.368Z,6.90
2018-06-08T03:15:55.732Z,6.23
2018-06-08T03:18:24.916Z,6.37
2018-06-08T03:20:54.197Z,8.47
2018-06-08T03:23:23.734Z,6.00
2018-06-08T03:25:52.906Z,7.50
2018-06-08T03:28:22.064Z,8.93
2018-06-08T03:30:51.258Z,8.93
2018-06-08T03:33:20.449Z,8.53
2018-06-08T03:35:49.549Z,10.03
2018-06-08T03:38:18.747Z,10.23
2018-06-08T03:40:47.902Z,7.77
2018-06-08T03:43:17.056Z,8.00
2018-06-08T03:45:46.209Z,7.17
2018-06-08T03:48:15.366Z,8.43
2018-06-08T03:50:44.578Z,8.50
2018-06-08T03:53:13.712Z,8.37
2018-06-08T03:55:42.860Z,7.57
2018-06-08T04:00:47.386Z,8.37
2018-06-08T04:03:16.559Z,7.73
2018-06-08T04:05:46.105Z,7.60
2018-06-08T04:08:15.241Z,7.43
2018-06-08T04:10:44.395Z,9.83
2018-06-08T04:13:13.566Z,9.30
2018-06-08T04:15:42.429Z,10.47
2018-06-08T04:18:11.458Z,8.73
2018-06-08T04:20:40.595Z,10.10
2018-06-08T04:23:09.740Z,9.60
2018-06-08T04:25:38.938Z,9.87
2018-06-08T04:28:08.091Z,10.93
2018-06-08T04:30:37.252Z,9.03
2018-06-08T04:33:06.512Z,8.70
2018-06-08T04:35:35.658Z,10.97
2018-06-08T04:38:04.820Z,7.20
2018-06-08T04:40:33.983Z,9.17
2018-06-08T04:43:03.110Z,8.93
2018-06-08T04:45:32.270Z,11.77
2018-06-08T04:48:01.852Z,7.80
2018-06-08T04:50:31.057Z,11.93
2018-06-08T04:53:00.270Z,9.23
2018-06-08T04:55:29.443Z,11.10
2018-06-08T04:57:58.608Z,8.03
2018-06-08T05:00:27.735Z,9.53
2018-06-08T05:02:56.906Z,9.83
2018-06-08T05:05:26.062Z,8.23
2018-06-08T05:07:55.239Z,6.80
2018-06-08T05:10:24.331Z,8.67
2018-06-08T05:12:53.484Z,7.97
2018-06-08T05:15:22.600Z,9.63
2018-06-08T05:17:51.754Z,8.07
2018-06-08T05:20:20.953Z,8.00
2018-06-08T05:22:50.097Z,9.60
2018-06-08T05:25:19.258Z,8.63
2018-06-08T05:27:48.415Z,7.53
2018-06-08T05:30:20.726Z,8.83
2018-06-08T05:32:49.833Z,7.80
2018-06-08T05:35:19.050Z,11.60
2018-06-08T05:37:48.183Z,7.57
2018-06-08T05:40:17.349Z,7.53
2018-06-08T05:42:46.810Z,7.40
2018-06-08T05:45:15.946Z,11.23
2018-06-08T05:47:45.310Z,10.83
2018-06-08T05:50:14.445Z,6.07
2018-06-08T05:52:43.626Z,11.57
2018-06-08T05:55:12.760Z,7.47
2018-06-08T05:57:42.016Z,8.80
2018-06-08T06:00:11.337Z,6.33
2018-06-08T06:02:40.497Z,6.57
2018-06-08T06:05:09.662Z,8.00
2018-06-08T06:07:38.863Z,10.33
2018-06-08T06:10:09.039Z,8.20
2018-06-08T06:12:38.230Z,8.00
2018-06-08T06:15:07.654Z,6.87
2018-06-08T06:17:36.735Z,7.30
2018-06-08T06:20:07.960Z,21.80
2018-06-08T06:22:37.090Z,7.60
2018-06-08T06:25:06.270Z,7.50
2018-06-08T06:27:35.412Z,6.73
2018-06-08T06:30:05.365Z,7.10
2018-06-08T06:32:35.008Z,8.23
2018-06-08T06:35:04.266Z,7.53
2018-06-08T06:37:33.568Z,8.80
2018-06-08T06:40:02.816Z,5.63
2018-06-08T06:42:32.130Z,6.80
2018-06-08T06:45:01.335Z,4.90
2018-06-08T06:47:31.480Z,7.10
2018-06-08T06:50:00.682Z,5.60
2018-06-08T06:52:29.886Z,6.47
2018-06-08T06:54:59.023Z,6.83
2018-06-08T06:57:28.193Z,6.80
2018-06-08T06:59:57.343Z,5.97
2018-06-08T07:02:26.726Z,6.33
2018-06-08T07:04:55.963Z,4.75
2018-06-08T07:07:25.122Z,7.92
2018-06-08T07:09:54.271Z,7.45
2018-06-08T07:12:23.449Z,6.80
2018-06-08T07:14:52.587Z,7.10
2018-06-08T07:17:21.767Z,7.10
2018-06-08T07:19:51.004Z,8.45
2018-06-08T07:22:24.046Z,8.18
2018-06-08T07:24:53.239Z,9.18
2018-06-08T07:27:22.340Z,7.72
2018-06-08T07:29:51.527Z,6.80
2018-06-08T07:32:20.728Z,6.83
2018-06-08T07:34:50.021Z,8.33
2018-06-08T07:37:19.278Z,10.28
2018-06-08T07:39:48.475Z,9.75
2018-06-08T07:42:17.681Z,7.75
2018-06-08T07:44:46.920Z,9.28
2018-06-08T07:47:16.149Z,10.65
2018-06-08T07:49:45.188Z,9.78
2018-06-08T07:52:14.369Z,8.50
2018-06-08T07:54:43.644Z,9.60
2018-06-08T07:57:12.853Z,13.10
2018-06-08T07:59:42.034Z,10.60
2018-06-08T08:02:11.235Z,9.55
2018-06-08T08:04:40.432Z,9.40
2018-06-08T08:07:09.689Z,13.13
2018-06-08T08:09:38.854Z,11.33
2018-06-08T08:12:08.058Z,11.43
2018-06-08T08:14:37.160Z,10.45
2018-06-08T08:17:06.399Z,9.88
2018-06-08T08:19:35.659Z,10.53
2018-06-08T08:22:04.825Z,13.72
2018-06-08T08:24:33.989Z,10.95
2018-06-08T08:27:03.239Z,14.33
2018-06-08T08:29:32.427Z,14.33
2018-06-08T08:32:01.642Z,11.50
2018-06-08T08:34:30.873Z,16.05
2018-06-08T08:37:00.106Z,11.50
2018-06-08T08:39:28.972Z,11.20
2018-06-08T08:41:58.001Z,11.05
2018-06-08T08:44:27.105Z,16.32
2018-06-08T08:46:56.401Z,12.37
2018-06-08T08:49:25.563Z,13.05
2018-06-08T08:51:54.708Z,12.80
2018-06-08T08:54:23.773Z,12.93
2018-06-08T08:56:52.982Z,13.62
2018-06-08T08:59:22.128Z,12.50
2018-06-08T09:01:52.511Z,13.37
2018-06-08T09:04:21.649Z,13.43
2018-06-08T09:06:53.022Z,11.93
2018-06-08T09:09:22.193Z,12.73
2018-06-08T09:11:51.386Z,12.77
2018-06-08T09:14:21.622Z,17.40
2018-06-08T09:16:50.976Z,12.27
2018-06-08T09:19:21.092Z,13.27
2018-06-08T09:21:50.277Z,11.27
2018-06-08T09:24:19.962Z,10.33
2018-06-08T09:26:49.098Z,12.17
2018-06-08T09:29:18.494Z,15.17
2018-06-08T09:31:47.589Z,11.20
2018-06-08T09:34:16.535Z,13.53
2018-06-08T09:36:45.575Z,13.90
2018-06-08T09:39:14.772Z,12.27
2018-06-08T09:41:44.029Z,12.53
2018-06-08T09:44:13.160Z,12.37
2018-06-08T09:46:42.459Z,11.13
2018-06-08T09:49:12.590Z,11.37
2018-06-08T09:51:41.860Z,15.30
2018-06-08T09:54:11.040Z,12.93
2018-06-08T09:56:40.247Z,20.07
2018-06-08T09:59:09.491Z,11.17
2018-06-08T10:01:38.666Z,13.83
2018-06-08T10:04:07.890Z,11.70
2018-06-08T10:06:37.156Z,11.47
2018-06-08T10:09:08.249Z,10.83
2018-06-08T10:11:37.362Z,11.23
2018-06-08T10:14:06.561Z,12.10
2018-06-08T10:16:35.785Z,11.77
2018-06-08T10:19:04.898Z,13.93
2018-06-08T10:21:34.104Z,11.93
2018-06-08T10:24:03.258Z,11.37
2018-06-08T10:26:32.398Z,13.13
2018-06-08T10:29:01.567Z,11.00
2018-06-08T10:31:30.747Z,12.63
2018-06-08T10:33:59.927Z,12.67
2018-06-08T10:36:29.084Z,10.27
2018-06-08T10:38:58.277Z,11.23
2018-06-08T10:41:27.413Z,10.27
2018-06-08T10:43:56.644Z,11.40
2018-06-08T10:46:25.778Z,10.27
2018-06-08T10:48:55.106Z,10.03
2018-06-08T10:51:24.234Z,10.90
2018-06-08T10:53:53.369Z,10.90
2018-06-08T10:56:22.618Z,11.50
2018-06-08T10:58:51.797Z,10.33
2018-06-08T11:01:21.010Z,12.03
2018-06-08T11:03:50.204Z,9.90
2018-06-08T11:06:19.372Z,10.73
2018-06-08T11:08:48.508Z,9.67
2018-06-08T11:11:17.756Z,12.87
2018-06-08T11:13:46.884Z,10.93
2018-06-08T11:16:16.026Z,10.17
2018-06-08T11:18:45.177Z,9.57
2018-06-08T11:21:14.320Z,9.57
2018-06-08T11:23:43.601Z,11.53
2018-06-08T11:26:12.822Z,10.57
2018-06-08T11:28:41.927Z,12.33
2018-06-08T11:31:11.085Z,11.07
2018-06-08T11:33:40.255Z,8.60
2018-06-08T11:36:09.551Z,10.20
2018-06-08T11:38:38.794Z,9.33
2018-06-08T11:41:07.932Z,10.43
2018-06-08T11:43:37.249Z,10.33
2018-06-08T11:46:06.444Z,9.90
2018-06-08T11:48:35.610Z,14.53
2018-06-08T11:51:04.799Z,10.93
2018-06-08T11:53:33.943Z,10.77
2018-06-08T11:56:03.105Z,10.33
2018-06-08T11:58:32.270Z,11.40
2018-06-08T12:01:01.367Z,10.47
2018-06-08T12:03:30.507Z,10.03
2018-06-08T12:05:59.641Z,11.57
2018-06-08T12:08:28.848Z,8.83
2018-06-08T12:10:58.022Z,9.57
2018-06-08T12:13:27.260Z,8.07
2018-06-08T12:15:56.416Z,11.70
2018-06-08T12:18:25.664Z,10.73
2018-06-08T12:20:54.859Z,10.53
2018-06-08T12:23:24.083Z,11.70
2018-06-08T12:25:53.294Z,9.40
2018-06-08T12:28:22.522Z,10.80
2018-06-08T12:30:51.762Z,8.87
2018-06-08T12:33:20.955Z,10.30
2018-06-08T12:35:50.131Z,13.32
2018-06-08T12:38:19.454Z,9.53
2018-06-08T12:40:48.688Z,12.83
2018-06-08T12:43:17.933Z,11.10
2018-06-08T12:45:47.147Z,10.40
2018-06-08T12:48:16.345Z,10.82
2018-06-08T12:50:45.749Z,10.00
2018-06-08T12:53:15.169Z,9.60
2018-06-08T12:55:44.590Z,10.53
2018-06-08T12:58:13.788Z,10.48
2018-06-08T13:00:43.052Z,11.40
2018-06-08T13:03:12.346Z,11.07
2018-06-08T13:05:41.624Z,10.38
2018-06-08T13:08:10.891Z,13.13
2018-06-08T13:10:40.148Z,11.43
2018-06-08T13:13:09.685Z,10.98
2018-06-08T13:15:39.657Z,10.57
2018-06-08T13:18:08.936Z,11.00
2018-06-08T13:20:38.243Z,9.87
2018-06-08T13:23:07.182Z,10.75
2018-06-08T13:25:36.334Z,15.93
2018-06-08T13:28:05.567Z,14.58
2018-06-08T13:30:34.772Z,11.88
2018-06-08T13:33:04.059Z,10.85
2018-06-08T13:35:33.538Z,9.83
2018-06-08T13:38:02.720Z,12.40
2018-06-08T13:40:32.055Z,11.43
2018-06-08T13:43:01.268Z,11.88
2018-06-08T13:45:31.337Z,14.55
2018-06-08T13:48:00.534Z,11.63
2018-06-08T13:50:29.874Z,13.93
2018-06-08T13:52:59.164Z,12.18
2018-06-08T13:55:28.439Z,11.50
2018-06-08T13:57:57.642Z,12.57
2018-06-08T14:00:26.930Z,10.90
2018-06-08T14:02:56.339Z,10.90
2018-06-08T14:05:25.622Z,10.98
2018-06-08T14:07:54.856Z,13.97
2018-06-08T14:10:24.180Z,11.10
2018-06-08T14:12:53.334Z,10.73
2018-06-08T14:15:22.774Z,10.58
2018-06-08T14:17:52.056Z,12.50
2018-06-08T14:20:21.328Z,12.28
2018-06-08T14:22:50.578Z,11.05
2018-06-08T14:25:19.810Z,11.38
2018-06-08T14:27:49.074Z,11.80
2018-06-08T14:30:18.278Z,10.35
2018-06-08T14:32:47.462Z,14.05
2018-06-08T14:35:16.706Z,12.37
2018-06-08T14:37:45.897Z,13.75
2018-06-08T14:40:15.142Z,10.40
2018-06-08T14:42:44.361Z,13.93
2018-06-08T14:45:13.535Z,11.93
2018-06-08T14:47:42.730Z,11.23
2018-06-08T14:50:11.985Z,11.43
2018-06-08T14:52:41.140Z,12.00
2018-06-08T14:55:10.330Z,21.87
2018-06-08T14:57:39.478Z,10.10
2018-06-08T15:00:08.737Z,10.23
2018-06-08T15:02:38.074Z,10.00
2018-06-08T15:05:07.539Z,9.83
2018-06-08T15:07:36.835Z,8.93
2018-06-08T15:10:06.259Z,9.67
2018-06-08T15:12:35.432Z,13.98
2018-06-08T15:15:04.950Z,24.30
2018-06-08T15:17:34.344Z,14.33
2018-06-08T15:20:03.697Z,22.55
2018-06-08T15:22:33.217Z,20.25
2018-06-08T15:25:02.587Z,12.90
2018-06-08T15:27:31.969Z,33.80
2018-06-08T15:30:01.305Z,25.40
2018-06-08T15:32:30.813Z,14.98
2018-06-08T15:35:00.222Z,10.32
2018-06-08T15:37:29.459Z,11.53
2018-06-08T15:39:58.722Z,12.28
2018-06-08T15:42:28.070Z,14.05
2018-06-08T15:44:57.336Z,12.73
2018-06-08T15:47:26.944Z,9.03
2018-06-08T15:49:56.119Z,8.95
2018-06-08T15:52:25.462Z,8.98
2018-06-08T15:54:54.707Z,9.08
2018-06-08T15:57:23.958Z,8.83
2018-06-08T15:59:53.139Z,8.53
2018-06-08T16:02:22.462Z,9.60
2018-06-08T16:04:51.746Z,8.38
2018-06-08T16:07:21.068Z,8.65
2018-06-08T16:09:50.253Z,8.38
2018-06-08T16:12:19.450Z,9.48
2018-06-08T16:14:48.713Z,10.28
2018-06-08T16:17:17.930Z,8.80
2018-06-08T16:19:47.055Z,9.58
2018-06-08T16:22:16.242Z,11.18
2018-06-08T16:24:45.429Z,8.60
2018-06-08T16:27:14.726Z,8.48
2018-06-08T16:29:44.144Z,8.58
2018-06-08T16:32:13.385Z,8.88
2018-06-08T16:34:42.620Z,8.65
2018-06-08T16:37:11.890Z,7.85
2018-06-08T16:39:41.080Z,7.90
2018-06-08T16:42:10.446Z,10.75
2018-06-08T16:44:39.640Z,8.50
2018-06-08T16:47:08.851Z,8.70
2018-06-08T16:49:38.099Z,8.83
2018-06-08T16:52:07.278Z,9.65
2018-06-08T16:54:36.481Z,9.80
2018-06-08T16:57:05.905Z,8.97
2018-06-08T16:59:35.050Z,9.10
2018-06-08T17:02:04.285Z,10.15
2018-06-08T17:04:33.478Z,11.03
2018-06-08T17:07:02.639Z,7.03
2018-06-08T17:09:31.804Z,6.87
2018-06-08T17:12:00.971Z,9.40
2018-06-08T17:14:30.106Z,9.73
2018-06-08T17:16:59.292Z,7.28
2018-06-08T17:19:28.509Z,11.43
2018-06-08T17:21:57.687Z,6.80
2018-06-08T17:24:26.847Z,6.07
2018-06-08T17:26:56.259Z,6.30
2018-06-08T17:29:25.414Z,6.03
2018-06-08T17:31:54.585Z,7.85
2018-06-08T17:34:23.756Z,7.15
2018-06-08T17:36:52.940Z,7.63
2018-06-08T17:39:22.126Z,7.33
2018-06-08T17:41:51.318Z,6.23
2018-06-08T17:44:20.500Z,8.93
2018-06-08T17:46:49.785Z,7.00
2018-06-08T17:49:18.936Z,6.83
2018-06-08T17:51:48.170Z,7.13
2018-06-08T17:54:17.354Z,7.77
2018-06-08T17:56:46.630Z,8.33
2018-06-08T17:59:15.762Z,7.87
2018-06-08T18:01:44.974Z,7.73
2018-06-08T18:04:14.261Z,7.90
2018-06-08T18:06:43.509Z,8.23
2018-06-08T18:09:13.243Z,7.57
2018-06-08T18:11:42.433Z,7.17
2018-06-08T18:14:11.596Z,7.70
2018-06-08T18:16:40.753Z,11.17
2018-06-08T18:19:09.946Z,8.20
2018-06-08T18:21:39.117Z,8.73
2018-06-08T18:24:08.345Z,7.50
2018-06-08T18:26:37.463Z,8.20
2018-06-08T18:29:06.638Z,8.90
2018-06-08T18:31:35.814Z,7.10
2018-06-08T18:34:05.017Z,8.53
2018-06-08T18:36:34.285Z,8.60
2018-06-08T18:39:06.377Z,6.70
2018-06-08T18:41:37.447Z,8.60
2018-06-08T18:44:08.445Z,8.27
2018-06-08T18:46:39.394Z,6.80
2018-06-08T18:49:10.418Z,10.27
2018-06-08T18:51:41.323Z,9.60
2018-06-08T18:54:10.594Z,8.63
2018-06-08T18:56:39.831Z,10.87
2018-06-08T18:59:08.942Z,10.40
2018-06-08T19:01:38.126Z,10.70
2018-06-08T19:04:07.354Z,10.43
2018-06-08T19:06:36.548Z,12.63
2018-06-08T19:09:08.503Z,11.33
2018-06-08T19:11:37.709Z,9.70
2018-06-08T19:14:06.905Z,11.00
2018-06-08T19:16:36.151Z,10.03
2018-06-08T19:19:05.299Z,9.57
2018-06-08T19:21:34.514Z,11.33
2018-06-08T19:24:03.698Z,10.67
2018-06-08T19:26:32.887Z,8.57
2018-06-08T19:29:02.046Z,8.07
2018-06-08T19:31:31.165Z,9.20
2018-06-08T19:34:00.530Z,11.13
2018-06-08T19:36:29.726Z,10.17
2018-06-08T19:38:58.901Z,11.40
2018-06-08T19:41:28.145Z,12.90
2018-06-08T19:43:57.034Z,11.93
2018-06-08T19:46:26.090Z,14.07
2018-06-08T19:48:55.364Z,15.00
2018-06-08T19:51:24.512Z,14.53
2018-06-08T19:53:53.733Z,12.63
2018-06-08T19:56:22.934Z,14.47
2018-06-08T19:58:52.078Z,13.90
2018-06-08T20:01:21.357Z,14.67
2018-06-08T20:03:50.558Z,13.93
2018-06-08T20:06:19.808Z,14.27
2018-06-08T20:08:48.990Z,14.63
2018-06-08T20:11:18.130Z,18.07
2018-06-08T20:13:47.330Z,16.13
2018-06-08T20:16:16.594Z,11.93
2018-06-08T20:18:45.792Z,13.70
2018-06-08T20:21:14.950Z,10.97
2018-06-08T20:23:44.172Z,14.50
2018-06-08T20:26:13.383Z,14.73
2018-06-08T20:28:42.554Z,11.17
2018-06-08T20:31:11.737Z,12.30
2018-06-08T20:33:41.024Z,15.23
2018-06-08T20:36:10.205Z,17.37
2018-06-08T20:38:39.394Z,18.60
2018-06-08T20:41:08.754Z,16.57
2018-06-08T20:43:37.976Z,17.63
2018-06-08T20:46:06.867Z,13.90
2018-06-08T20:48:35.884Z,11.77
2018-06-08T20:51:05.152Z,16.67
2018-06-08T20:53:34.337Z,11.53
2018-06-08T20:56:03.549Z,12.40
2018-06-08T20:58:32.776Z,12.00
2018-06-08T21:01:02.739Z,21.27
2018-06-08T21:03:31.903Z,25.60
2018-06-08T21:06:01.201Z,20.43
2018-06-08T21:08:30.664Z,17.77
2018-06-08T21:11:00.173Z,14.97
2018-06-08T21:13:29.961Z,15.60
2018-06-08T21:15:59.122Z,14.90
2018-06-08T21:18:28.354Z,15.43
2018-06-08T21:20:57.583Z,16.67
2018-06-08T21:23:26.796Z,20.07
2018-06-08T21:25:55.984Z,12.20
2018-06-08T21:28:25.199Z,11.97
2018-06-08T21:30:54.395Z,12.43
2018-06-08T21:33:23.249Z,12.73
2018-06-08T21:35:52.828Z,13.50
2018-06-08T21:38:22.041Z,13.67
2018-06-08T21:40:51.285Z,13.97
2018-06-08T21:43:20.438Z,13.23
2018-06-08T21:45:49.672Z,14.23
2018-06-08T21:48:18.850Z,15.67
2018-06-08T21:50:48.049Z,16.50
2018-06-08T21:53:17.213Z,16.00
2018-06-08T21:55:46.476Z,16.07
2018-06-08T21:58:15.727Z,19.53
2018-06-08T22:00:44.870Z,16.50
2018-06-08T22:03:14.079Z,16.57
2018-06-08T22:05:43.268Z,15.53
2018-06-08T22:08:12.474Z,18.93
2018-06-08T22:10:41.680Z,17.53
2018-06-08T22:13:10.873Z,15.87
2018-06-08T22:15:40.471Z,15.07
2018-06-08T22:18:09.665Z,14.93
2018-06-08T22:20:38.909Z,13.97
2018-06-08T22:23:08.174Z,13.53
2018-06-08T22:25:37.348Z,15.40
2018-06-08T22:28:06.350Z,14.17
2018-06-08T22:30:35.385Z,14.03
2018-06-08T22:33:04.671Z,15.90
2018-06-08T22:35:33.841Z,19.07
2018-06-08T22:38:03.081Z,18.82
2018-06-08T22:40:32.898Z,16.03
2018-06-08T22:43:02.215Z,15.40
2018-06-08T22:45:31.353Z,15.03
2018-06-08T22:48:00.286Z,15.00
2018-06-08T22:50:29.337Z,16.37
2018-06-08T22:52:58.643Z,16.00
2018-06-08T22:55:27.855Z,14.77
2018-06-08T22:57:57.080Z,14.03
2018-06-08T23:00:26.310Z,14.37
2018-06-08T23:02:55.638Z,14.73
2018-06-08T23:05:24.837Z,16.63
2018-06-08T23:07:53.973Z,15.60
2018-06-08T23:10:23.145Z,15.87
2018-06-08T23:12:52.402Z,17.00
2018-06-08T23:15:21.657Z,16.33
2018-06-08T23:17:50.892Z,15.27
2018-06-08T23:20:20.226Z,13.70
2018-06-08T23:22:49.456Z,13.57
2018-06-08T23:25:19.106Z,13.50
2018-06-08T23:27:48.323Z,17.00
2018-06-08T23:30:17.464Z,13.87
2018-06-08T23:32:46.681Z,12.47
2018-06-08T23:35:15.853Z,13.53
2018-06-08T23:37:45.342Z,14.67
2018-06-08T23:40:14.456Z,14.67
2018-06-08T23:42:43.604Z,13.80
2018-06-08T23:45:13.081Z,16.67
2018-06-08T23:47:42.256Z,12.53
2018-06-08T23:50:11.497Z,13.20
2018-06-08T23:52:40.721Z,14.20
2018-06-08T23:55:09.874Z,13.63
2018-06-08T23:57:39.057Z,11.93
